sensor_id;sensor_type;location;lat;lon;timestamp;pressure;altitude;pressure_sealevel;temperature;humidity
22018;BME280;11173;51.050;7.108;2022-12-07T00:04:50;99564.47;;;3.65;71.99
22018;BME280;11173;51.050;7.108;2022-12-07T00:14:51;99565.31;;;3.69;71.79
22018;BME280;11173;51.050;7.108;2022-12-07T00:24:51;99560.69;;;3.77;71.92
22018;BME280;11173;51.050;7.108;2022-12-07T00:34:51;99555.19;;;3.77;72.05
22018;BME280;11173;51.050;7.108;2022-12-07T00:44:52;99548.91;;;3.80;71.92
22018;BME280;11173;51.050;7.108;2022-12-07T00:54:52;99542.22;;;3.81;71.99
22018;BME280;11173;51.050;7.108;2022-12-07T01:04:52;99542.59;;;3.80;72.01
22018;BME280;11173;51.050;7.108;2022-12-07T01:14:53;99538.28;;;3.82;72.03
22018;BME280;11173;51.050;7.108;2022-12-07T01:24:53;99539.56;;;3.92;71.83
22018;BME280;11173;51.050;7.108;2022-12-07T01:34:53;99538.38;;;3.89;71.73
22018;BME280;11173;51.050;7.108;2022-12-07T01:45:41;99540.72;;;3.87;71.80
22018;BME280;11173;51.050;7.108;2022-12-07T01:55:44;99543.47;;;3.87;71.88
22018;BME280;11173;51.050;7.108;2022-12-07T02:05:47;99524.97;;;3.88;71.85
22018;BME280;11173;51.050;7.108;2022-12-07T02:16:21;99524.56;;;3.86;71.86
22018;BME280;11173;51.050;7.108;2022-12-07T02:26:35;99516.25;;;3.82;72.21
22018;BME280;11173;51.050;7.108;2022-12-07T02:36:43;99514.69;;;3.81;71.95
22018;BME280;11173;51.050;7.108;2022-12-07T02:46:52;99515.47;;;3.82;71.86
22018;BME280;11173;51.050;7.108;2022-12-07T03:17:35;99503.16;;;3.72;72.25
22018;BME280;11173;51.050;7.108;2022-12-07T03:27:41;99524.41;;;3.75;72.49
22018;BME280;11173;51.050;7.108;2022-12-07T03:37:52;99506.69;;;3.72;72.12
22018;BME280;11173;51.050;7.108;2022-12-07T03:48:32;99515.75;;;3.73;72.32
22018;BME280;11173;51.050;7.108;2022-12-07T03:58:34;99496.81;;;3.68;72.26
22018;BME280;11173;51.050;7.108;2022-12-07T04:08:35;99502.38;;;3.71;72.28
22018;BME280;11173;51.050;7.108;2022-12-07T04:18:36;99516.09;;;3.68;72.31
22018;BME280;11173;51.050;7.108;2022-12-07T04:28:36;99508.19;;;3.66;72.02
22018;BME280;11173;51.050;7.108;2022-12-07T04:38:36;99512.88;;;3.62;72.20
22018;BME280;11173;51.050;7.108;2022-12-07T04:48:37;99508.56;;;3.61;72.34
22018;BME280;11173;51.050;7.108;2022-12-07T04:58:37;99497.53;;;3.61;72.56
22018;BME280;11173;51.050;7.108;2022-12-07T05:08:38;99497.53;;;3.61;72.18
22018;BME280;11173;51.050;7.108;2022-12-07T05:18:38;99494.38;;;3.59;72.56
22018;BME280;11173;51.050;7.108;2022-12-07T05:28:38;99514.84;;;3.62;72.26
22018;BME280;11173;51.050;7.108;2022-12-07T05:38:39;99507.72;;;3.57;71.90
22018;BME280;11173;51.050;7.108;2022-12-07T05:48:40;99505.19;;;3.45;72.25
22018;BME280;11173;51.050;7.108;2022-12-07T05:58:40;99496.94;;;3.45;72.40
22018;BME280;11173;51.050;7.108;2022-12-07T06:08:59;99502.88;;;3.47;72.37
22018;BME280;11173;51.050;7.108;2022-12-07T06:19:00;99497.75;;;3.45;72.16
22018;BME280;11173;51.050;7.108;2022-12-07T06:29:00;99499.69;;;3.45;72.32
22018;BME280;11173;51.050;7.108;2022-12-07T06:39:01;99520.19;;;3.47;72.19
22018;BME280;11173;51.050;7.108;2022-12-07T06:49:02;99513.09;;;3.46;72.13
22018;BME280;11173;51.050;7.108;2022-12-07T06:59:04;99514.66;;;3.44;72.01
22018;BME280;11173;51.050;7.108;2022-12-07T07:09:06;99517.72;;;3.38;72.14
22018;BME280;11173;51.050;7.108;2022-12-07T07:19:06;99533.88;;;3.40;71.90
22018;BME280;11173;51.050;7.108;2022-12-07T07:29:07;99522.03;;;3.36;72.01
22018;BME280;11173;51.050;7.108;2022-12-07T07:39:07;99527.13;;;3.34;72.32
22018;BME280;11173;51.050;7.108;2022-12-07T07:49:09;99528.66;;;3.31;72.48
22018;BME280;11173;51.050;7.108;2022-12-07T07:59:10;99531.06;;;3.36;72.62
22018;BME280;11173;51.050;7.108;2022-12-07T08:09:10;99537.03;;;3.42;72.40
22018;BME280;11173;51.050;7.108;2022-12-07T08:19:11;99534.34;;;3.46;72.11
22018;BME280;11173;51.050;7.108;2022-12-07T08:29:11;99535.06;;;3.39;72.27
22018;BME280;11173;51.050;7.108;2022-12-07T08:39:12;99557.56;;;3.48;72.32
22018;BME280;11173;51.050;7.108;2022-12-07T08:49:34;99554.56;;;3.57;72.34
22018;BME280;11173;51.050;7.108;2022-12-07T08:59:36;99542.44;;;3.65;72.55
22018;BME280;11173;51.050;7.108;2022-12-07T09:09:37;99537.41;;;3.74;72.26
22018;BME280;11173;51.050;7.108;2022-12-07T09:19:38;99545.41;;;3.83;71.97
22018;BME280;11173;51.050;7.108;2022-12-07T09:29:38;99553.25;;;3.85;71.72
22018;BME280;11173;51.050;7.108;2022-12-07T09:39:40;99554.56;;;3.94;72.94
22018;BME280;11173;51.050;7.108;2022-12-07T09:49:40;99561.06;;;4.13;72.21
22018;BME280;11173;51.050;7.108;2022-12-07T09:59:41;99545.34;;;4.21;71.84
22018;BME280;11173;51.050;7.108;2022-12-07T10:09:41;99537.56;;;4.30;71.68
22018;BME280;11173;51.050;7.108;2022-12-07T10:19:43;99542.34;;;4.33;71.34
22018;BME280;11173;51.050;7.108;2022-12-07T10:29:48;99522.63;;;4.34;71.82
22018;BME280;11173;51.050;7.108;2022-12-07T10:39:54;99521.13;;;4.44;71.84
22018;BME280;11173;51.050;7.108;2022-12-07T10:50:12;99505.41;;;4.48;71.35
22018;BME280;11173;51.050;7.108;2022-12-07T11:00:24;99493.25;;;4.56;71.16
22018;BME280;11173;51.050;7.108;2022-12-07T11:10:34;99487.00;;;4.63;72.13
22018;BME280;11173;51.050;7.108;2022-12-07T11:20:50;99470.50;;;4.74;71.18
22018;BME280;11173;51.050;7.108;2022-12-07T11:31:38;99456.66;;;4.67;70.78
22018;BME280;11173;51.050;7.108;2022-12-07T11:41:49;99449.63;;;4.73;71.25
22018;BME280;11173;51.050;7.108;2022-12-07T11:51:53;99445.31;;;4.86;71.35
22018;BME280;11173;51.050;7.108;2022-12-07T12:02:12;99431.59;;;5.01;71.17
22018;BME280;11173;51.050;7.108;2022-12-07T12:12:42;99432.88;;;5.21;69.76
22018;BME280;11173;51.050;7.108;2022-12-07T12:22:45;99430.88;;;5.18;69.51
22018;BME280;11173;51.050;7.108;2022-12-07T12:32:48;99405.22;;;5.14;69.83
22018;BME280;11173;51.050;7.108;2022-12-07T12:42:52;99405.25;;;5.21;69.30
22018;BME280;11173;51.050;7.108;2022-12-07T12:53:00;99396.97;;;5.32;69.89
22018;BME280;11173;51.050;7.108;2022-12-07T13:03:02;99385.16;;;5.38;67.53
22018;BME280;11173;51.050;7.108;2022-12-07T13:23:20;99377.25;;;5.19;68.81
22018;BME280;11173;51.050;7.108;2022-12-07T13:33:22;99362.22;;;5.20;67.92
22018;BME280;11173;51.050;7.108;2022-12-07T13:43:23;99363.41;;;5.12;68.17
22018;BME280;11173;51.050;7.108;2022-12-07T13:53:24;99348.38;;;5.02;67.96
22018;BME280;11173;51.050;7.108;2022-12-07T14:03:31;99356.19;;;4.78;68.33
22018;BME280;11173;51.050;7.108;2022-12-07T14:13:35;99339.56;;;4.57;68.76
22018;BME280;11173;51.050;7.108;2022-12-07T14:23:37;99337.16;;;4.52;69.37
22018;BME280;11173;51.050;7.108;2022-12-07T14:33:39;99332.84;;;4.51;69.45
22018;BME280;11173;51.050;7.108;2022-12-07T14:43:40;99315.06;;;4.48;69.62
22018;BME280;11173;51.050;7.108;2022-12-07T14:53:44;99314.69;;;4.50;69.27
22018;BME280;11173;51.050;7.108;2022-12-07T15:03:46;99302.81;;;4.35;68.69
22018;BME280;11173;51.050;7.108;2022-12-07T15:13:46;99304.25;;;4.11;69.11
22018;BME280;11173;51.050;7.108;2022-12-07T15:24:06;99296.22;;;3.84;68.85
22018;BME280;11173;51.050;7.108;2022-12-07T15:34:06;99296.78;;;3.56;69.24
22018;BME280;11173;51.050;7.108;2022-12-07T15:44:10;99291.47;;;3.33;69.49
22018;BME280;11173;51.050;7.108;2022-12-07T15:54:30;99284.75;;;3.23;70.66
22018;BME280;11173;51.050;7.108;2022-12-07T16:04:32;99288.44;;;3.42;71.11
22018;BME280;11173;51.050;7.108;2022-12-07T16:14:32;99290.53;;;3.59;70.37
22018;BME280;11173;51.050;7.108;2022-12-07T16:24:33;99280.75;;;3.65;69.92
22018;BME280;11173;51.050;7.108;2022-12-07T16:34:33;99274.81;;;3.63;69.73
22018;BME280;11173;51.050;7.108;2022-12-07T16:44:34;99276.38;;;3.61;69.76
22018;BME280;11173;51.050;7.108;2022-12-07T16:54:35;99265.34;;;3.57;70.11
22018;BME280;11173;51.050;7.108;2022-12-07T17:04:36;99257.50;;;3.59;70.11
22018;BME280;11173;51.050;7.108;2022-12-07T17:14:39;99252.75;;;3.60;70.29
22018;BME280;11173;51.050;7.108;2022-12-07T17:24:58;99242.09;;;3.54;70.46
22018;BME280;11173;51.050;7.108;2022-12-07T17:34:58;99240.19;;;3.62;70.55
22018;BME280;11173;51.050;7.108;2022-12-07T17:45:00;99229.56;;;3.64;70.63
22018;BME280;11173;51.050;7.108;2022-12-07T17:55:00;99225.69;;;3.72;70.30
22018;BME280;11173;51.050;7.108;2022-12-07T18:05:00;99218.22;;;3.76;70.45
22018;BME280;11173;51.050;7.108;2022-12-07T18:15:01;99213.53;;;3.77;70.45
22018;BME280;11173;51.050;7.108;2022-12-07T18:25:01;99205.63;;;3.75;70.69
22018;BME280;11173;51.050;7.108;2022-12-07T18:35:02;99198.53;;;3.74;70.71
22018;BME280;11173;51.050;7.108;2022-12-07T18:45:02;99187.91;;;3.76;70.80
22018;BME280;11173;51.050;7.108;2022-12-07T18:55:03;99195.44;;;3.80;70.08
22018;BME280;11173;51.050;7.108;2022-12-07T19:05:04;99185.91;;;3.66;70.06
22018;BME280;11173;51.050;7.108;2022-12-07T19:15:05;99192.13;;;3.56;70.59
22018;BME280;11173;51.050;7.108;2022-12-07T19:25:06;99168.91;;;3.53;70.88
22018;BME280;11173;51.050;7.108;2022-12-07T19:35:07;99170.50;;;3.58;70.85
22018;BME280;11173;51.050;7.108;2022-12-07T19:45:08;99157.94;;;3.57;70.90
22018;BME280;11173;51.050;7.108;2022-12-07T19:55:09;99170.50;;;3.58;70.87
22018;BME280;11173;51.050;7.108;2022-12-07T20:05:09;99156.75;;;3.58;71.05
22018;BME280;11173;51.050;7.108;2022-12-07T20:15:10;99152.00;;;3.55;70.99
22018;BME280;11173;51.050;7.108;2022-12-07T20:25:10;99142.53;;;3.52;71.12
22018;BME280;11173;51.050;7.108;2022-12-07T20:35:10;99133.44;;;3.41;70.06
22018;BME280;11173;51.050;7.108;2022-12-07T20:45:11;99122.63;;;3.11;69.77
22018;BME280;11173;51.050;7.108;2022-12-07T20:55:12;99120.81;;;2.85;71.23
22018;BME280;11173;51.050;7.108;2022-12-07T21:05:12;99127.16;;;2.89;71.49
22018;BME280;11173;51.050;7.108;2022-12-07T21:15:13;99107.50;;;2.90;71.55
22018;BME280;11173;51.050;7.108;2022-12-07T21:25:13;99105.66;;;3.02;71.71
22018;BME280;11173;51.050;7.108;2022-12-07T21:35:14;99101.38;;;3.08;71.65
22018;BME280;11173;51.050;7.108;2022-12-07T21:45:14;99089.59;;;3.11;71.44
22018;BME280;11173;51.050;7.108;2022-12-07T21:55:14;99086.50;;;3.16;71.33
22018;BME280;11173;51.050;7.108;2022-12-07T22:05:15;99088.88;;;3.21;71.29
22018;BME280;11173;51.050;7.108;2022-12-07T22:15:15;99097.50;;;3.16;71.46
22018;BME280;11173;51.050;7.108;2022-12-07T22:25:16;99088.50;;;3.19;71.54
22018;BME280;11173;51.050;7.108;2022-12-07T22:35:16;99075.88;;;3.18;71.74
22018;BME280;11173;51.050;7.108;2022-12-07T22:45:17;99069.25;;;3.26;71.40
22018;BME280;11173;51.050;7.108;2022-12-07T22:55:17;99065.31;;;3.27;71.53
22018;BME280;11173;51.050;7.108;2022-12-07T23:05:17;99048.00;;;3.27;71.22
22018;BME280;11173;51.050;7.108;2022-12-07T23:15:18;99029.13;;;3.25;71.02
22018;BME280;11173;51.050;7.108;2022-12-07T23:25:18;99037.00;;;3.23;71.12
22018;BME280;11173;51.050;7.108;2022-12-07T23:35:19;99014.16;;;3.19;71.40
22018;BME280;11173;51.050;7.108;2022-12-07T23:45:19;99005.50;;;3.21;71.22
22018;BME280;11173;51.050;7.108;2022-12-07T23:55:20;98993.72;;;3.20;71.18
